sensor_id;sensor_type;location;lat;lon;timestamp;temperature;humidity
8994;DHT22;4532;50.886;4.700;2023-02-15T00:01:24;6.40;99.90
8994;DHT22;4532;50.886;4.700;2023-02-15T00:03:54;6.40;99.90
8994;DHT22;4532;50.886;4.700;2023-02-15T00:06:22;6.40;99.90
8994;DHT22;4532;50.886;4.700;2023-02-15T00:08:49;6.30;99.90
8994;DHT22;4532;50.886;4.700;2023-02-15T00:11:18;6.30;99.90
8994;DHT22;4532;50.886;4.700;2023-02-15T00:14:06;6.30;99.90
8994;DHT22;4532;50.886;4.700;2023-02-15T00:16:34;6.20;99.90
8994;DHT22;4532;50.886;4.700;2023-02-15T00:19:04;6.20;99.90
8994;DHT22;4532;50.886;4.700;2023-02-15T00:21:33;6.20;99.90
8994;DHT22;4532;50.886;4.700;2023-02-15T00:24:02;6.10;99.90
8994;DHT22;4532;50.886;4.700;2023-02-15T00:26:35;6.10;99.90
8994;DHT22;4532;50.886;4.700;2023-02-15T00:29:05;6.10;99.90
8994;DHT22;4532;50.886;4.700;2023-02-15T00:31:35;6.00;99.90
8994;DHT22;4532;50.886;4.700;2023-02-15T00:34:07;6.00;99.90
8994;DHT22;4532;50.886;4.700;2023-02-15T00:36:37;6.00;99.90
8994;DHT22;4532;50.886;4.700;2023-02-15T00:39:04;5.90;99.90
8994;DHT22;4532;50.886;4.700;2023-02-15T00:41:32;5.90;99.90
8994;DHT22;4532;50.886;4.700;2023-02-15T00:44:02;5.90;99.90
8994;DHT22;4532;50.886;4.700;2023-02-15T00:46:33;5.90;99.90
8994;DHT22;4532;50.886;4.700;2023-02-15T00:49:00;5.80;99.90
8994;DHT22;4532;50.886;4.700;2023-02-15T00:51:30;5.80;99.90
8994;DHT22;4532;50.886;4.700;2023-02-15T00:53:58;5.70;99.90
8994;DHT22;4532;50.886;4.700;2023-02-15T00:56:25;5.70;99.90
8994;DHT22;4532;50.886;4.700;2023-02-15T00:58:52;5.70;99.90
8994;DHT22;4532;50.886;4.700;2023-02-15T01:01:22;5.70;99.90
8994;DHT22;4532;50.886;4.700;2023-02-15T01:03:51;5.60;99.90
8994;DHT22;4532;50.886;4.700;2023-02-15T01:06:21;5.60;99.90
8994;DHT22;4532;50.886;4.700;2023-02-15T01:08:51;5.60;99.90
8994;DHT22;4532;50.886;4.700;2023-02-15T01:11:20;5.60;99.90
8994;DHT22;4532;50.886;4.700;2023-02-15T01:13:55;5.50;99.90
8994;DHT22;4532;50.886;4.700;2023-02-15T01:16:24;5.50;99.90
8994;DHT22;4532;50.886;4.700;2023-02-15T01:18:54;5.40;99.90
8994;DHT22;4532;50.886;4.700;2023-02-15T01:21:25;5.40;99.90
8994;DHT22;4532;50.886;4.700;2023-02-15T01:23:55;5.40;99.90
8994;DHT22;4532;50.886;4.700;2023-02-15T01:26:22;5.30;99.90
8994;DHT22;4532;50.886;4.700;2023-02-15T01:28:51;5.30;99.90
8994;DHT22;4532;50.886;4.700;2023-02-15T01:31:21;5.30;99.90
8994;DHT22;4532;50.886;4.700;2023-02-15T01:33:53;5.30;99.90
8994;DHT22;4532;50.886;4.700;2023-02-15T01:36:20;5.30;99.90
8994;DHT22;4532;50.886;4.700;2023-02-15T01:38:52;5.30;99.90
8994;DHT22;4532;50.886;4.700;2023-02-15T01:41:19;5.30;99.90
8994;DHT22;4532;50.886;4.700;2023-02-15T01:43:53;5.30;99.90
8994;DHT22;4532;50.886;4.700;2023-02-15T01:46:46;5.20;99.90
8994;DHT22;4532;50.886;4.700;2023-02-15T01:49:21;5.20;99.90
8994;DHT22;4532;50.886;4.700;2023-02-15T01:51:51;5.20;99.90
8994;DHT22;4532;50.886;4.700;2023-02-15T01:54:33;5.20;99.90
8994;DHT22;4532;50.886;4.700;2023-02-15T01:57:14;5.20;99.90
8994;DHT22;4532;50.886;4.700;2023-02-15T01:59:46;5.10;99.90
8994;DHT22;4532;50.886;4.700;2023-02-15T02:02:17;5.10;99.90
8994;DHT22;4532;50.886;4.700;2023-02-15T02:04:48;5.10;99.90
8994;DHT22;4532;50.886;4.700;2023-02-15T02:07:25;5.10;99.90
8994;DHT22;4532;50.886;4.700;2023-02-15T02:09:55;5.10;99.90
8994;DHT22;4532;50.886;4.700;2023-02-15T02:12:23;5.10;99.90
8994;DHT22;4532;50.886;4.700;2023-02-15T02:14:56;5.10;99.90
8994;DHT22;4532;50.886;4.700;2023-02-15T02:20:17;5.10;99.90
8994;DHT22;4532;50.886;4.700;2023-02-15T02:23:48;5.10;99.90
8994;DHT22;4532;50.886;4.700;2023-02-15T02:31:56;5.10;99.90
8994;DHT22;4532;50.886;4.700;2023-02-15T02:34:38;5.00;99.90
8994;DHT22;4532;50.886;4.700;2023-02-15T02:42:43;5.00;99.90
8994;DHT22;4532;50.886;4.700;2023-02-15T02:45:15;5.00;99.90
8994;DHT22;4532;50.886;4.700;2023-02-15T02:47:52;4.90;99.90
8994;DHT22;4532;50.886;4.700;2023-02-15T02:50:26;4.90;99.90
8994;DHT22;4532;50.886;4.700;2023-02-15T02:52:55;4.90;99.90
8994;DHT22;4532;50.886;4.700;2023-02-15T02:55:43;4.90;99.90
8994;DHT22;4532;50.886;4.700;2023-02-15T03:01:06;4.80;99.90
8994;DHT22;4532;50.886;4.700;2023-02-15T03:03:41;4.80;99.90
8994;DHT22;4532;50.886;4.700;2023-02-15T03:06:15;4.70;99.90
8994;DHT22;4532;50.886;4.700;2023-02-15T03:09:14;4.70;99.90
8994;DHT22;4532;50.886;4.700;2023-02-15T03:11:43;4.70;99.90
8994;DHT22;4532;50.886;4.700;2023-02-15T03:14:14;4.60;99.90
8994;DHT22;4532;50.886;4.700;2023-02-15T03:16:43;4.60;99.90
8994;DHT22;4532;50.886;4.700;2023-02-15T03:19:27;4.60;99.90
8994;DHT22;4532;50.886;4.700;2023-02-15T03:21:59;4.50;99.90
8994;DHT22;4532;50.886;4.700;2023-02-15T03:24:43;4.50;99.90
8994;DHT22;4532;50.886;4.700;2023-02-15T03:27:22;4.50;99.90
8994;DHT22;4532;50.886;4.700;2023-02-15T03:29:55;4.50;99.90
8994;DHT22;4532;50.886;4.700;2023-02-15T03:32:30;4.40;99.90
8994;DHT22;4532;50.886;4.700;2023-02-15T03:34:59;4.40;99.90
8994;DHT22;4532;50.886;4.700;2023-02-15T03:37:36;4.40;99.90
8994;DHT22;4532;50.886;4.700;2023-02-15T03:40:11;4.40;99.90
8994;DHT22;4532;50.886;4.700;2023-02-15T03:43:12;4.40;99.90
8994;DHT22;4532;50.886;4.700;2023-02-15T03:45:46;4.40;99.90
8994;DHT22;4532;50.886;4.700;2023-02-15T03:48:25;4.40;99.90
8994;DHT22;4532;50.886;4.700;2023-02-15T03:51:02;4.40;99.90
8994;DHT22;4532;50.886;4.700;2023-02-15T03:53:50;4.40;99.90
8994;DHT22;4532;50.886;4.700;2023-02-15T03:56:21;4.40;99.90
8994;DHT22;4532;50.886;4.700;2023-02-15T03:58:48;4.40;99.90
8994;DHT22;4532;50.886;4.700;2023-02-15T04:01:40;4.40;99.90
8994;DHT22;4532;50.886;4.700;2023-02-15T04:07:05;4.30;99.90
8994;DHT22;4532;50.886;4.700;2023-02-15T04:09:35;4.30;99.90
8994;DHT22;4532;50.886;4.700;2023-02-15T04:12:21;4.30;99.90
8994;DHT22;4532;50.886;4.700;2023-02-15T04:14:51;4.30;99.90
8994;DHT22;4532;50.886;4.700;2023-02-15T04:17:37;4.30;99.90
8994;DHT22;4532;50.886;4.700;2023-02-15T04:20:08;4.30;99.90
8994;DHT22;4532;50.886;4.700;2023-02-15T04:22:54;4.30;99.90
8994;DHT22;4532;50.886;4.700;2023-02-15T04:25:39;4.20;99.90
8994;DHT22;4532;50.886;4.700;2023-02-15T04:28:09;4.20;99.90
8994;DHT22;4532;50.886;4.700;2023-02-15T04:30:39;4.20;99.90
8994;DHT22;4532;50.886;4.700;2023-02-15T04:33:06;4.20;99.90
8994;DHT22;4532;50.886;4.700;2023-02-15T04:35:33;4.20;99.90
8994;DHT22;4532;50.886;4.700;2023-02-15T04:38:00;4.20;99.90
8994;DHT22;4532;50.886;4.700;2023-02-15T04:40:29;4.10;99.90
8994;DHT22;4532;50.886;4.700;2023-02-15T04:42:56;4.10;99.90
8994;DHT22;4532;50.886;4.700;2023-02-15T04:45:24;4.10;99.90
8994;DHT22;4532;50.886;4.700;2023-02-15T04:47:53;4.10;99.90
8994;DHT22;4532;50.886;4.700;2023-02-15T04:50:20;4.10;99.90
8994;DHT22;4532;50.886;4.700;2023-02-15T04:52:49;4.10;99.90
8994;DHT22;4532;50.886;4.700;2023-02-15T04:55:17;4.00;99.90
8994;DHT22;4532;50.886;4.700;2023-02-15T04:57:45;4.00;99.90
8994;DHT22;4532;50.886;4.700;2023-02-15T05:00:15;4.00;99.90
8994;DHT22;4532;50.886;4.700;2023-02-15T05:02:47;3.90;99.90
8994;DHT22;4532;50.886;4.700;2023-02-15T05:05:14;3.90;99.90
8994;DHT22;4532;50.886;4.700;2023-02-15T05:07:42;3.90;99.90
8994;DHT22;4532;50.886;4.700;2023-02-15T05:10:13;3.90;99.90
8994;DHT22;4532;50.886;4.700;2023-02-15T05:12:45;3.90;99.90
8994;DHT22;4532;50.886;4.700;2023-02-15T05:15:12;3.80;99.90
8994;DHT22;4532;50.886;4.700;2023-02-15T05:17:42;3.80;99.90
8994;DHT22;4532;50.886;4.700;2023-02-15T05:20:12;3.80;99.90
8994;DHT22;4532;50.886;4.700;2023-02-15T05:22:39;3.80;99.90
8994;DHT22;4532;50.886;4.700;2023-02-15T05:25:11;3.80;99.90
8994;DHT22;4532;50.886;4.700;2023-02-15T05:27:57;3.80;99.90
8994;DHT22;4532;50.886;4.700;2023-02-15T05:30:45;3.80;99.90
8994;DHT22;4532;50.886;4.700;2023-02-15T05:33:13;3.70;99.90
8994;DHT22;4532;50.886;4.700;2023-02-15T05:35:44;3.70;99.90
8994;DHT22;4532;50.886;4.700;2023-02-15T05:38:11;3.70;99.90
8994;DHT22;4532;50.886;4.700;2023-02-15T05:40:39;3.70;99.90
8994;DHT22;4532;50.886;4.700;2023-02-15T05:43:06;3.70;99.90
8994;DHT22;4532;50.886;4.700;2023-02-15T05:45:35;3.70;99.90
8994;DHT22;4532;50.886;4.700;2023-02-15T05:48:06;3.70;99.90
8994;DHT22;4532;50.886;4.700;2023-02-15T05:50:35;3.70;99.90
8994;DHT22;4532;50.886;4.700;2023-02-15T05:53:02;3.60;99.90
8994;DHT22;4532;50.886;4.700;2023-02-15T05:55:30;3.70;99.90
8994;DHT22;4532;50.886;4.700;2023-02-15T05:57:57;3.60;99.90
8994;DHT22;4532;50.886;4.700;2023-02-15T06:00:26;3.60;99.90
8994;DHT22;4532;50.886;4.700;2023-02-15T06:02:53;3.60;99.90
8994;DHT22;4532;50.886;4.700;2023-02-15T06:05:20;3.60;99.90
8994;DHT22;4532;50.886;4.700;2023-02-15T06:07:47;3.60;99.90
8994;DHT22;4532;50.886;4.700;2023-02-15T06:10:15;3.50;99.90
8994;DHT22;4532;50.886;4.700;2023-02-15T06:12:43;3.50;99.90
8994;DHT22;4532;50.886;4.700;2023-02-15T06:15:13;3.50;99.90
8994;DHT22;4532;50.886;4.700;2023-02-15T06:17:43;3.50;99.90
8994;DHT22;4532;50.886;4.700;2023-02-15T06:20:13;3.50;99.90
8994;DHT22;4532;50.886;4.700;2023-02-15T06:22:41;3.50;99.90
8994;DHT22;4532;50.886;4.700;2023-02-15T06:25:08;3.50;99.90
8994;DHT22;4532;50.886;4.700;2023-02-15T06:27:37;3.50;99.90
8994;DHT22;4532;50.886;4.700;2023-02-15T06:30:08;3.50;99.90
8994;DHT22;4532;50.886;4.700;2023-02-15T06:32:38;3.50;99.90
8994;DHT22;4532;50.886;4.700;2023-02-15T06:35:05;3.40;99.90
8994;DHT22;4532;50.886;4.700;2023-02-15T06:37:38;3.40;99.90
8994;DHT22;4532;50.886;4.700;2023-02-15T06:40:09;3.40;99.90
8994;DHT22;4532;50.886;4.700;2023-02-15T06:42:36;3.40;99.90
8994;DHT22;4532;50.886;4.700;2023-02-15T06:45:06;3.40;99.90
8994;DHT22;4532;50.886;4.700;2023-02-15T06:47:34;3.50;99.90
8994;DHT22;4532;50.886;4.700;2023-02-15T06:50:05;3.40;99.90
8994;DHT22;4532;50.886;4.700;2023-02-15T06:52:37;3.40;99.90
8994;DHT22;4532;50.886;4.700;2023-02-15T06:55:05;3.50;99.90
8994;DHT22;4532;50.886;4.700;2023-02-15T06:57:33;3.50;99.90
8994;DHT22;4532;50.886;4.700;2023-02-15T07:00:00;3.50;99.90
8994;DHT22;4532;50.886;4.700;2023-02-15T07:02:36;3.50;99.90
8994;DHT22;4532;50.886;4.700;2023-02-15T07:05:05;3.50;99.90
8994;DHT22;4532;50.886;4.700;2023-02-15T07:07:35;3.50;99.90
8994;DHT22;4532;50.886;4.700;2023-02-15T07:10:03;3.50;99.90
8994;DHT22;4532;50.886;4.700;2023-02-15T07:12:30;3.50;99.90
8994;DHT22;4532;50.886;4.700;2023-02-15T07:15:15;3.50;99.90
8994;DHT22;4532;50.886;4.700;2023-02-15T07:17:45;3.50;99.90
8994;DHT22;4532;50.886;4.700;2023-02-15T07:20:19;3.50;99.90
8994;DHT22;4532;50.886;4.700;2023-02-15T07:22:50;3.60;99.90
8994;DHT22;4532;50.886;4.700;2023-02-15T07:25:20;3.60;99.90
8994;DHT22;4532;50.886;4.700;2023-02-15T07:27:58;3.60;99.90
8994;DHT22;4532;50.886;4.700;2023-02-15T07:30:29;3.70;99.90
8994;DHT22;4532;50.886;4.700;2023-02-15T07:32:57;3.60;99.90
8994;DHT22;4532;50.886;4.700;2023-02-15T07:35:50;3.70;99.90
8994;DHT22;4532;50.886;4.700;2023-02-15T07:38:27;3.70;99.90
8994;DHT22;4532;50.886;4.700;2023-02-15T07:41:00;3.70;99.90
8994;DHT22;4532;50.886;4.700;2023-02-15T07:43:32;3.70;99.90
8994;DHT22;4532;50.886;4.700;2023-02-15T07:46:08;3.70;99.90
8994;DHT22;4532;50.886;4.700;2023-02-15T07:48:36;3.80;99.90
8994;DHT22;4532;50.886;4.700;2023-02-15T07:51:09;3.80;99.90
8994;DHT22;4532;50.886;4.700;2023-02-15T07:53:37;3.80;99.90
8994;DHT22;4532;50.886;4.700;2023-02-15T07:56:10;3.80;99.90
8994;DHT22;4532;50.886;4.700;2023-02-15T07:58:39;3.80;99.90
8994;DHT22;4532;50.886;4.700;2023-02-15T08:01:26;3.90;99.90
8994;DHT22;4532;50.886;4.700;2023-02-15T08:03:54;3.90;99.90
8994;DHT22;4532;50.886;4.700;2023-02-15T08:06:24;3.90;99.90
8994;DHT22;4532;50.886;4.700;2023-02-15T08:08:52;3.90;99.90
8994;DHT22;4532;50.886;4.700;2023-02-15T08:11:31;3.90;99.90
8994;DHT22;4532;50.886;4.700;2023-02-15T08:14:20;4.00;99.90
8994;DHT22;4532;50.886;4.700;2023-02-15T08:16:54;4.00;99.90
8994;DHT22;4532;50.886;4.700;2023-02-15T08:19:30;4.10;99.90
8994;DHT22;4532;50.886;4.700;2023-02-15T08:21:59;4.10;99.90
8994;DHT22;4532;50.886;4.700;2023-02-15T08:24:32;4.10;99.90
8994;DHT22;4532;50.886;4.700;2023-02-15T08:27:05;4.20;99.90
8994;DHT22;4532;50.886;4.700;2023-02-15T08:29:36;4.20;99.90
8994;DHT22;4532;50.886;4.700;2023-02-15T08:32:06;4.30;99.90
8994;DHT22;4532;50.886;4.700;2023-02-15T08:34:39;4.30;99.90
8994;DHT22;4532;50.886;4.700;2023-02-15T08:37:07;4.30;99.90
8994;DHT22;4532;50.886;4.700;2023-02-15T08:39:36;4.40;99.90
8994;DHT22;4532;50.886;4.700;2023-02-15T08:42:04;4.40;99.90
8994;DHT22;4532;50.886;4.700;2023-02-15T08:44:31;4.50;99.90
8994;DHT22;4532;50.886;4.700;2023-02-15T08:47:00;4.60;99.90
8994;DHT22;4532;50.886;4.700;2023-02-15T08:49:31;4.60;99.90
8994;DHT22;4532;50.886;4.700;2023-02-15T08:51:58;4.70;99.90
8994;DHT22;4532;50.886;4.700;2023-02-15T08:54:33;4.80;99.90
8994;DHT22;4532;50.886;4.700;2023-02-15T08:57:01;4.80;99.90
8994;DHT22;4532;50.886;4.700;2023-02-15T08:59:30;4.90;99.90
8994;DHT22;4532;50.886;4.700;2023-02-15T09:01:57;4.90;99.90
8994;DHT22;4532;50.886;4.700;2023-02-15T09:04:25;5.00;99.90
8994;DHT22;4532;50.886;4.700;2023-02-15T09:06:52;5.00;99.90
8994;DHT22;4532;50.886;4.700;2023-02-15T09:09:20;5.10;99.90
8994;DHT22;4532;50.886;4.700;2023-02-15T09:11:50;5.20;99.90
8994;DHT22;4532;50.886;4.700;2023-02-15T09:14:24;5.30;99.90
8994;DHT22;4532;50.886;4.700;2023-02-15T09:16:53;5.30;99.90
8994;DHT22;4532;50.886;4.700;2023-02-15T09:19:22;5.40;99.90
8994;DHT22;4532;50.886;4.700;2023-02-15T09:21:52;5.50;99.90
8994;DHT22;4532;50.886;4.700;2023-02-15T09:24:19;5.60;99.90
8994;DHT22;4532;50.886;4.700;2023-02-15T09:26:47;5.60;99.90
8994;DHT22;4532;50.886;4.700;2023-02-15T09:29:19;5.70;99.90
8994;DHT22;4532;50.886;4.700;2023-02-15T09:31:50;5.80;99.90
8994;DHT22;4532;50.886;4.700;2023-02-15T09:34:20;5.80;99.90
8994;DHT22;4532;50.886;4.700;2023-02-15T09:36:54;5.90;99.90
8994;DHT22;4532;50.886;4.700;2023-02-15T09:39:25;6.00;99.90
8994;DHT22;4532;50.886;4.700;2023-02-15T09:42:16;6.10;99.90
8994;DHT22;4532;50.886;4.700;2023-02-15T09:53:47;6.40;99.90
8994;DHT22;4532;50.886;4.700;2023-02-15T09:56:32;6.50;99.90
8994;DHT22;4532;50.886;4.700;2023-02-15T09:59:26;6.50;99.90
8994;DHT22;4532;50.886;4.700;2023-02-15T10:07:55;6.80;99.90
8994;DHT22;4532;50.886;4.700;2023-02-15T10:13:50;7.00;99.90
8994;DHT22;4532;50.886;4.700;2023-02-15T10:16:41;7.10;99.90
8994;DHT22;4532;50.886;4.700;2023-02-15T10:22:13;7.30;99.90
8994;DHT22;4532;50.886;4.700;2023-02-15T10:27:21;7.60;99.90
8994;DHT22;4532;50.886;4.700;2023-02-15T10:32:45;7.80;99.90
8994;DHT22;4532;50.886;4.700;2023-02-15T10:35:23;7.90;99.90
8994;DHT22;4532;50.886;4.700;2023-02-15T10:47:04;8.30;99.90
8994;DHT22;4532;50.886;4.700;2023-02-15T10:55:21;8.70;99.90
8994;DHT22;4532;50.886;4.700;2023-02-15T11:08:38;9.10;99.90
8994;DHT22;4532;50.886;4.700;2023-02-15T11:11:12;9.20;99.90
8994;DHT22;4532;50.886;4.700;2023-02-15T11:13:46;9.30;99.90
8994;DHT22;4532;50.886;4.700;2023-02-15T11:16:19;9.40;99.90
8994;DHT22;4532;50.886;4.700;2023-02-15T11:21:32;9.50;99.90
8994;DHT22;4532;50.886;4.700;2023-02-15T11:24:07;9.60;99.90
8994;DHT22;4532;50.886;4.700;2023-02-15T11:29:57;9.90;99.90
8994;DHT22;4532;50.886;4.700;2023-02-15T11:32:32;10.00;99.90
8994;DHT22;4532;50.886;4.700;2023-02-15T11:40:20;10.30;99.90
8994;DHT22;4532;50.886;4.700;2023-02-15T11:43:03;10.40;99.90
8994;DHT22;4532;50.886;4.700;2023-02-15T11:45:33;10.40;99.90
8994;DHT22;4532;50.886;4.700;2023-02-15T11:48:12;10.50;99.90
8994;DHT22;4532;50.886;4.700;2023-02-15T11:50:40;10.60;99.90
8994;DHT22;4532;50.886;4.700;2023-02-15T11:53:16;10.60;99.90
8994;DHT22;4532;50.886;4.700;2023-02-15T11:55:46;10.70;99.90
8994;DHT22;4532;50.886;4.700;2023-02-15T12:00:49;10.90;99.90
8994;DHT22;4532;50.886;4.700;2023-02-15T12:06:04;11.10;99.90
8994;DHT22;4532;50.886;4.700;2023-02-15T12:08:42;11.20;99.90
8994;DHT22;4532;50.886;4.700;2023-02-15T12:11:19;11.20;99.90
8994;DHT22;4532;50.886;4.700;2023-02-15T12:16:23;11.40;99.90
8994;DHT22;4532;50.886;4.700;2023-02-15T12:18:57;11.50;99.90
8994;DHT22;4532;50.886;4.700;2023-02-15T12:21:39;11.50;99.90
8994;DHT22;4532;50.886;4.700;2023-02-15T12:24:19;11.60;99.90
8994;DHT22;4532;50.886;4.700;2023-02-15T12:29:27;11.70;99.90
8994;DHT22;4532;50.886;4.700;2023-02-15T12:31:57;11.70;99.90
8994;DHT22;4532;50.886;4.700;2023-02-15T12:34:36;11.80;99.90
8994;DHT22;4532;50.886;4.700;2023-02-15T12:37:25;11.90;99.90
8994;DHT22;4532;50.886;4.700;2023-02-15T12:40:00;11.90;99.90
8994;DHT22;4532;50.886;4.700;2023-02-15T12:42:42;12.00;99.90
8994;DHT22;4532;50.886;4.700;2023-02-15T12:45:24;12.00;99.90
8994;DHT22;4532;50.886;4.700;2023-02-15T12:48:24;12.10;99.90
8994;DHT22;4532;50.886;4.700;2023-02-15T12:50:52;12.10;99.90
8994;DHT22;4532;50.886;4.700;2023-02-15T12:53:37;12.20;99.90
8994;DHT22;4532;50.886;4.700;2023-02-15T12:56:07;12.30;99.90
8994;DHT22;4532;50.886;4.700;2023-02-15T12:58:40;12.30;99.90
8994;DHT22;4532;50.886;4.700;2023-02-15T13:01:22;12.40;99.90
8994;DHT22;4532;50.886;4.700;2023-02-15T13:04:04;12.50;99.90
8994;DHT22;4532;50.886;4.700;2023-02-15T13:06:35;12.60;99.90
8994;DHT22;4532;50.886;4.700;2023-02-15T13:09:21;12.60;99.90
8994;DHT22;4532;50.886;4.700;2023-02-15T13:11:51;12.70;99.90
8994;DHT22;4532;50.886;4.700;2023-02-15T13:16:48;12.80;99.90
8994;DHT22;4532;50.886;4.700;2023-02-15T13:19:37;12.80;99.90
8994;DHT22;4532;50.886;4.700;2023-02-15T13:22:13;12.90;99.90
8994;DHT22;4532;50.886;4.700;2023-02-15T13:24:53;12.90;99.90
8994;DHT22;4532;50.886;4.700;2023-02-15T13:27:24;13.00;99.90
8994;DHT22;4532;50.886;4.700;2023-02-15T13:29:55;13.00;99.90
8994;DHT22;4532;50.886;4.700;2023-02-15T13:35:00;13.10;99.90
8994;DHT22;4532;50.886;4.700;2023-02-15T13:40:40;13.20;99.90
8994;DHT22;4532;50.886;4.700;2023-02-15T14:00:35;13.50;99.90
8994;DHT22;4532;50.886;4.700;2023-02-15T14:03:25;13.50;99.90
8994;DHT22;4532;50.886;4.700;2023-02-15T14:20:14;13.70;99.90
8994;DHT22;4532;50.886;4.700;2023-02-15T14:22:54;13.70;99.90
8994;DHT22;4532;50.886;4.700;2023-02-15T14:25:35;13.70;99.90
8994;DHT22;4532;50.886;4.700;2023-02-15T14:30:46;13.80;99.90
8994;DHT22;4532;50.886;4.700;2023-02-15T14:33:37;13.80;99.90
8994;DHT22;4532;50.886;4.700;2023-02-15T14:36:08;13.80;99.90
8994;DHT22;4532;50.886;4.700;2023-02-15T14:42:09;13.90;99.90
8994;DHT22;4532;50.886;4.700;2023-02-15T14:44:46;13.90;99.90
8994;DHT22;4532;50.886;4.700;2023-02-15T14:48:00;13.90;99.90
8994;DHT22;4532;50.886;4.700;2023-02-15T14:50:36;13.90;99.90
8994;DHT22;4532;50.886;4.700;2023-02-15T15:01:50;14.00;99.90
8994;DHT22;4532;50.886;4.700;2023-02-15T15:07:19;14.10;99.90
8994;DHT22;4532;50.886;4.700;2023-02-15T15:12:57;14.10;99.90
8994;DHT22;4532;50.886;4.700;2023-02-15T15:18:10;14.10;99.90
8994;DHT22;4532;50.886;4.700;2023-02-15T15:20:47;14.10;99.90
8994;DHT22;4532;50.886;4.700;2023-02-15T15:25:52;14.10;99.90
8994;DHT22;4532;50.886;4.700;2023-02-15T15:42:46;14.10;99.90
8994;DHT22;4532;50.886;4.700;2023-02-15T15:45:49;14.10;99.90
8994;DHT22;4532;50.886;4.700;2023-02-15T15:50:56;14.10;99.90
8994;DHT22;4532;50.886;4.700;2023-02-15T15:53:28;14.10;99.90
8994;DHT22;4532;50.886;4.700;2023-02-15T15:56:05;14.10;99.90
8994;DHT22;4532;50.886;4.700;2023-02-15T15:58:33;14.10;99.90
8994;DHT22;4532;50.886;4.700;2023-02-15T16:05:18;14.00;99.90
8994;DHT22;4532;50.886;4.700;2023-02-15T16:07:46;14.00;99.90
8994;DHT22;4532;50.886;4.700;2023-02-15T16:10:25;13.90;99.90
8994;DHT22;4532;50.886;4.700;2023-02-15T16:12:56;13.90;99.90
8994;DHT22;4532;50.886;4.700;2023-02-15T16:15:45;13.90;99.90
8994;DHT22;4532;50.886;4.700;2023-02-15T16:18:18;13.90;99.90
8994;DHT22;4532;50.886;4.700;2023-02-15T16:20:54;13.90;99.90
8994;DHT22;4532;50.886;4.700;2023-02-15T16:28:42;13.80;99.90
8994;DHT22;4532;50.886;4.700;2023-02-15T16:31:15;13.70;99.90
8994;DHT22;4532;50.886;4.700;2023-02-15T16:33:46;13.70;99.90
8994;DHT22;4532;50.886;4.700;2023-02-15T16:36:24;13.70;99.90
8994;DHT22;4532;50.886;4.700;2023-02-15T16:41:28;13.60;99.90
8994;DHT22;4532;50.886;4.700;2023-02-15T16:44:13;13.50;99.90
8994;DHT22;4532;50.886;4.700;2023-02-15T16:46:44;13.50;99.90
8994;DHT22;4532;50.886;4.700;2023-02-15T16:49:23;13.40;99.90
8994;DHT22;4532;50.886;4.700;2023-02-15T16:52:00;13.40;99.90
8994;DHT22;4532;50.886;4.700;2023-02-15T16:54:31;13.30;99.90
8994;DHT22;4532;50.886;4.700;2023-02-15T16:56:58;13.30;99.90
8994;DHT22;4532;50.886;4.700;2023-02-15T16:59:35;13.30;99.90
8994;DHT22;4532;50.886;4.700;2023-02-15T17:02:05;13.20;99.90
8994;DHT22;4532;50.886;4.700;2023-02-15T17:04:40;13.20;99.90
8994;DHT22;4532;50.886;4.700;2023-02-15T17:07:16;13.10;99.90
8994;DHT22;4532;50.886;4.700;2023-02-15T17:09:52;13.10;99.90
8994;DHT22;4532;50.886;4.700;2023-02-15T17:12:46;13.00;99.90
8994;DHT22;4532;50.886;4.700;2023-02-15T17:15:34;13.00;99.90
8994;DHT22;4532;50.886;4.700;2023-02-15T17:18:17;12.90;99.90
8994;DHT22;4532;50.886;4.700;2023-02-15T17:20:46;12.80;99.90
8994;DHT22;4532;50.886;4.700;2023-02-15T17:25:50;12.70;99.90
8994;DHT22;4532;50.886;4.700;2023-02-15T17:28:24;12.70;99.90
8994;DHT22;4532;50.886;4.700;2023-02-15T17:30:55;12.70;99.90
8994;DHT22;4532;50.886;4.700;2023-02-15T17:39:12;12.50;99.90
8994;DHT22;4532;50.886;4.700;2023-02-15T17:41:48;12.50;99.90
8994;DHT22;4532;50.886;4.700;2023-02-15T17:44:16;12.40;99.90
8994;DHT22;4532;50.886;4.700;2023-02-15T17:46:52;12.40;99.90
8994;DHT22;4532;50.886;4.700;2023-02-15T17:49:28;12.30;99.90
8994;DHT22;4532;50.886;4.700;2023-02-15T17:52:03;12.30;99.90
8994;DHT22;4532;50.886;4.700;2023-02-15T17:54:34;12.20;99.90
8994;DHT22;4532;50.886;4.700;2023-02-15T17:57:22;12.20;99.90
8994;DHT22;4532;50.886;4.700;2023-02-15T17:59:49;12.10;99.90
8994;DHT22;4532;50.886;4.700;2023-02-15T18:02:35;12.10;99.90
8994;DHT22;4532;50.886;4.700;2023-02-15T18:05:23;12.10;99.90
8994;DHT22;4532;50.886;4.700;2023-02-15T18:08:14;12.00;99.90
8994;DHT22;4532;50.886;4.700;2023-02-15T18:11:03;12.00;99.90
8994;DHT22;4532;50.886;4.700;2023-02-15T18:13:51;12.00;99.90
8994;DHT22;4532;50.886;4.700;2023-02-15T18:16:26;11.90;99.90
8994;DHT22;4532;50.886;4.700;2023-02-15T18:18:56;11.90;99.90
8994;DHT22;4532;50.886;4.700;2023-02-15T18:21:30;11.90;99.90
8994;DHT22;4532;50.886;4.700;2023-02-15T18:23:59;11.90;99.90
8994;DHT22;4532;50.886;4.700;2023-02-15T18:26:31;11.90;99.90
8994;DHT22;4532;50.886;4.700;2023-02-15T18:29:00;11.90;99.90
8994;DHT22;4532;50.886;4.700;2023-02-15T18:31:27;11.80;99.90
8994;DHT22;4532;50.886;4.700;2023-02-15T18:33:57;11.90;99.90
8994;DHT22;4532;50.886;4.700;2023-02-15T18:36:36;11.80;99.90
8994;DHT22;4532;50.886;4.700;2023-02-15T18:42:04;11.80;99.90
8994;DHT22;4532;50.886;4.700;2023-02-15T18:44:34;11.80;99.90
8994;DHT22;4532;50.886;4.700;2023-02-15T18:47:04;11.80;99.90
8994;DHT22;4532;50.886;4.700;2023-02-15T18:49:33;11.80;99.90
8994;DHT22;4532;50.886;4.700;2023-02-15T18:52:03;11.80;99.90
8994;DHT22;4532;50.886;4.700;2023-02-15T18:54:31;11.80;99.90
8994;DHT22;4532;50.886;4.700;2023-02-15T18:56:59;11.80;99.90
8994;DHT22;4532;50.886;4.700;2023-02-15T18:59:27;11.80;99.90
8994;DHT22;4532;50.886;4.700;2023-02-15T19:01:58;11.70;99.90
8994;DHT22;4532;50.886;4.700;2023-02-15T19:04:27;11.70;99.90
8994;DHT22;4532;50.886;4.700;2023-02-15T19:06:54;11.70;99.90
8994;DHT22;4532;50.886;4.700;2023-02-15T19:09:26;11.60;99.90
8994;DHT22;4532;50.886;4.700;2023-02-15T19:11:57;11.60;99.90
8994;DHT22;4532;50.886;4.700;2023-02-15T19:14:32;11.60;99.90
8994;DHT22;4532;50.886;4.700;2023-02-15T19:17:09;11.60;99.90
8994;DHT22;4532;50.886;4.700;2023-02-15T19:19:41;11.50;99.90
8994;DHT22;4532;50.886;4.700;2023-02-15T19:22:29;11.50;99.90
8994;DHT22;4532;50.886;4.700;2023-02-15T19:25:02;11.50;99.90
8994;DHT22;4532;50.886;4.700;2023-02-15T19:27:33;11.50;99.90
8994;DHT22;4532;50.886;4.700;2023-02-15T19:30:17;11.50;99.90
8994;DHT22;4532;50.886;4.700;2023-02-15T19:32:47;11.50;99.90
8994;DHT22;4532;50.886;4.700;2023-02-15T19:35:19;11.40;99.90
8994;DHT22;4532;50.886;4.700;2023-02-15T19:37:51;11.40;99.90
8994;DHT22;4532;50.886;4.700;2023-02-15T19:40:22;11.30;99.90
8994;DHT22;4532;50.886;4.700;2023-02-15T19:42:52;11.30;99.90
8994;DHT22;4532;50.886;4.700;2023-02-15T19:45:22;11.30;99.90
8994;DHT22;4532;50.886;4.700;2023-02-15T19:47:50;11.20;99.90
8994;DHT22;4532;50.886;4.700;2023-02-15T19:50:23;11.20;99.90
8994;DHT22;4532;50.886;4.700;2023-02-15T19:52:51;11.20;99.90
8994;DHT22;4532;50.886;4.700;2023-02-15T19:55:24;11.20;99.90
8994;DHT22;4532;50.886;4.700;2023-02-15T19:57:55;11.10;99.90
8994;DHT22;4532;50.886;4.700;2023-02-15T20:00:30;11.10;99.90
8994;DHT22;4532;50.886;4.700;2023-02-15T20:03:00;11.10;99.90
8994;DHT22;4532;50.886;4.700;2023-02-15T20:05:29;11.00;99.90
8994;DHT22;4532;50.886;4.700;2023-02-15T20:07:57;11.00;99.90
8994;DHT22;4532;50.886;4.700;2023-02-15T20:10:30;11.00;99.90
8994;DHT22;4532;50.886;4.700;2023-02-15T20:12:57;11.00;99.90